Time;durP1;ratioP1;P1;durP2;ratioP2;P2;SDS_P1;SDS_P2;PMS_P1;PMS_P2;Temp;Humidity;BMP_temperature;BMP_pressure;BME280_temperature;BME280_humidity;BME280_pressure;Samples;Min_cycle;Max_cycle;Signal;HPM_P1;HPM_P2
2023/06/08 00:00:44;;;;;;;31.13;21.00;;;18.50;99.90;;;;;;2097588;28;20210;-73
2023/06/08 00:01:45;;;;;;;26.52;20.52;;;18.50;99.90;;;;;;2105486;28;20040;-73
2023/06/08 00:02:46;;;;;;;23.48;19.67;;;18.50;99.90;;;;;;2095243;28;20464;-73
2023/06/08 00:03:47;;;;;;;22.77;19.83;;;18.50;99.90;;;;;;2093881;28;20396;-73
2023/06/08 00:04:47;;;;;;;22.83;20.38;;;18.50;99.90;;;;;;2098047;28;20024;-73
2023/06/08 00:05:49;;;;;;;21.40;18.65;;;18.50;99.90;;;;;;2096025;28;20040;-74
2023/06/08 00:06:52;;;;;;;21.13;18.63;;;18.50;99.90;;;;;;2094617;28;20494;-73
2023/06/08 00:07:53;;;;;;;21.08;18.77;;;18.50;99.90;;;;;;2092620;28;20036;-73
2023/06/08 00:08:53;;;;;;;21.17;19.02;;;18.50;99.90;;;;;;2092007;28;20154;-73
2023/06/08 00:09:54;;;;;;;22.27;18.92;;;18.50;99.90;;;;;;2095683;28;20020;-74
2023/06/08 00:10:55;;;;;;;21.63;19.33;;;18.50;99.90;;;;;;2096184;28;20761;-74
2023/06/08 00:11:55;;;;;;;24.23;20.23;;;18.50;99.90;;;;;;2102154;28;20024;-74
2023/06/08 00:12:57;;;;;;;21.52;18.67;;;18.50;99.90;;;;;;2099657;28;20027;-74
2023/06/08 00:14:00;;;;;;;22.83;19.40;;;18.50;99.90;;;;;;2095945;28;20031;-72
2023/06/08 00:15:01;;;;;;;24.85;20.92;;;18.50;99.90;;;;;;2103596;27;20152;-73
2023/06/08 00:16:03;;;;;;;23.65;20.10;;;18.50;99.90;;;;;;2102111;28;20028;-73
2023/06/08 00:17:04;;;;;;;22.98;20.15;;;18.50;99.90;;;;;;2092615;28;20033;-73
2023/06/08 00:18:08;;;;;;;24.73;21.90;;;18.40;99.90;;;;;;2096656;28;20039;-73
2023/06/08 00:19:10;;;;;;;24.38;21.70;;;18.40;99.90;;;;;;2100637;28;20088;-73
2023/06/08 00:20:11;;;;;;;24.00;21.35;;;18.40;99.90;;;;;;2095485;28;20035;-74
2023/06/08 00:21:12;;;;;;;27.00;21.75;;;18.40;99.90;;;;;;2097151;28;20076;-74
2023/06/08 00:22:13;;;;;;;24.15;20.98;;;18.40;99.90;;;;;;2095272;28;20055;-74
2023/06/08 00:23:15;;;;;;;22.55;20.15;;;18.40;99.90;;;;;;2096965;28;20552;-74
2023/06/08 00:24:20;;;;;;;22.95;20.25;;;18.40;99.90;;;;;;2098844;28;20032;-74
2023/06/08 00:25:20;;;;;;;23.33;21.05;;;18.40;99.90;;;;;;2099440;28;20029;-73
2023/06/08 00:26:22;;;;;;;24.75;21.98;;;18.40;99.90;;;;;;2098618;28;20488;-73
2023/06/08 00:27:23;;;;;;;25.00;21.98;;;18.30;99.90;;;;;;2096579;28;20115;-73
2023/06/08 00:28:24;;;;;;;25.55;22.92;;;18.30;99.90;;;;;;2099665;28;20210;-73
2023/06/08 00:29:24;;;;;;;24.58;22.08;;;18.30;99.90;;;;;;2095429;28;20036;-73
2023/06/08 00:30:26;;;;;;;27.90;22.98;;;18.30;99.90;;;;;;2099770;28;20070;-73
2023/06/08 00:31:27;;;;;;;24.85;22.35;;;18.30;99.90;;;;;;2096060;28;20023;-73
2023/06/08 00:32:28;;;;;;;24.17;21.38;;;18.20;99.90;;;;;;2096318;28;20483;-73
2023/06/08 00:33:28;;;;;;;25.50;22.67;;;18.30;99.90;;;;;;2094346;28;20029;-73
2023/06/08 00:34:29;;;;;;;23.20;20.77;;;18.20;99.90;;;;;;2094034;28;20303;-72
2023/06/08 00:35:30;;;;;;;22.92;20.52;;;18.20;99.90;;;;;;2092780;28;20143;-72
2023/06/08 00:36:31;;;;;;;23.52;20.98;;;18.30;99.90;;;;;;2092751;28;20024;-73
2023/06/08 00:37:32;;;;;;;23.75;21.13;;;18.20;99.90;;;;;;2094996;28;20028;-73
2023/06/08 00:38:34;;;;;;;22.60;20.30;;;18.30;99.90;;;;;;2096027;28;20519;-73
2023/06/08 00:39:37;;;;;;;24.20;20.27;;;18.20;99.90;;;;;;2095814;28;20493;-73
2023/06/08 00:40:38;;;;;;;21.95;19.75;;;18.20;99.90;;;;;;2096398;28;20028;-74
2023/06/08 00:41:39;;;;;;;23.52;21.02;;;18.20;99.90;;;;;;2101529;28;20456;-73
2023/06/08 00:42:39;;;;;;;23.08;20.42;;;18.20;99.90;;;;;;2097402;28;20035;-73
2023/06/08 00:43:44;;;;;;;21.88;19.67;;;18.20;99.90;;;;;;2094383;28;20086;-73
2023/06/08 00:44:44;;;;;;;22.20;19.67;;;18.20;99.90;;;;;;2093123;28;20036;-72
2023/06/08 00:45:45;;;;;;;23.05;20.45;;;18.20;99.90;;;;;;2101029;28;20029;-73
2023/06/08 00:46:48;;;;;;;23.30;20.67;;;18.20;99.90;;;;;;2096758;28;20029;-73
2023/06/08 00:47:48;;;;;;;22.08;19.65;;;18.20;99.90;;;;;;2096573;28;20074;-73
2023/06/08 00:48:52;;;;;;;22.98;20.65;;;18.20;99.90;;;;;;2096135;28;20028;-73
2023/06/08 00:49:53;;;;;;;24.55;21.95;;;18.20;99.90;;;;;;2095242;28;20028;-72
2023/06/08 00:50:57;;;;;;;24.50;21.88;;;18.10;99.90;;;;;;2086684;28;20029;-72
2023/06/08 00:51:58;;;;;;;25.40;22.30;;;18.20;99.90;;;;;;2095158;28;20028;-72
2023/06/08 00:52:59;;;;;;;24.92;22.33;;;18.10;99.90;;;;;;2101871;28;20020;-73
2023/06/08 00:54:04;;;;;;;24.92;22.00;;;18.10;99.90;;;;;;2091480;28;20028;-73
2023/06/08 00:55:06;;;;;;;24.98;22.17;;;18.20;99.90;;;;;;2093387;28;20115;-72
2023/06/08 00:56:07;;;;;;;24.52;22.02;;;18.10;99.90;;;;;;2092882;28;20597;-74
2023/06/08 00:57:09;;;;;;;25.75;23.15;;;18.10;99.90;;;;;;2090593;28;20020;-73
2023/06/08 00:58:13;;;;;;;29.48;22.13;;;18.10;99.90;;;;;;2092617;28;20112;-74
2023/06/08 00:59:14;;;;;;;25.23;22.52;;;18.20;99.90;;;;;;2091391;28;20036;-73
2023/06/08 01:00:15;;;;;;;24.80;22.20;;;18.10;99.90;;;;;;2091753;28;20060;-74
2023/06/08 01:01:19;;;;;;;26.55;22.45;;;18.10;99.90;;;;;;2095661;28;20036;-73
2023/06/08 01:02:20;;;;;;;24.17;21.77;;;18.10;99.90;;;;;;2100291;28;20043;-73
2023/06/08 01:03:21;;;;;;;24.85;22.25;;;18.10;99.90;;;;;;2096428;28;20306;-73
2023/06/08 01:04:23;;;;;;;24.95;22.35;;;18.10;99.90;;;;;;2085802;28;20052;-73
2023/06/08 01:05:24;;;;;;;25.05;22.45;;;18.10;99.90;;;;;;2085878;28;20045;-73
2023/06/08 01:06:24;;;;;;;24.67;22.10;;;18.10;99.90;;;;;;2082436;28;20029;-73
2023/06/08 01:07:53;;;;;;;27.70;24.63;;;18.10;99.90;;;;;;2095937;28;20031;-73
2023/06/08 01:09:15;;;;;;;26.60;23.90;;;18.10;99.90;;;;;;2093408;28;20031;-73
2023/06/08 01:10:28;;;;;;;26.80;23.75;;;18.10;99.90;;;;;;2094631;28;20031;-73
2023/06/08 01:11:43;;;;;;;28.25;25.25;;;18.10;99.90;;;;;;2089704;28;20036;-74
2023/06/08 01:12:56;;;;;;;26.88;24.08;;;18.00;99.90;;;;;;2095333;28;20477;-73
2023/06/08 01:14:24;;;;;;;26.95;24.15;;;18.10;99.90;;;;;;2088855;28;20035;-73
2023/06/08 01:15:31;;;;;;;25.50;22.88;;;18.00;99.90;;;;;;2097424;28;20028;-72
2023/06/08 01:16:37;;;;;;;26.55;23.67;;;18.00;99.90;;;;;;2092112;28;20035;-72
2023/06/08 01:17:40;;;;;;;26.92;24.05;;;18.00;99.90;;;;;;2088329;28;20562;-73
2023/06/08 01:18:43;;;;;;;26.17;23.42;;;18.00;99.90;;;;;;2097159;28;20498;-72
2023/06/08 01:20:04;;;;;;;27.08;24.27;;;18.00;99.90;;;;;;2096391;28;20044;-72
2023/06/08 01:21:42;;;;;;;25.35;22.88;;;18.00;99.90;;;;;;2096794;28;20425;-72
2023/06/08 01:23:10;;;;;;;26.17;23.38;;;18.00;99.90;;;;;;2094098;28;20562;-73
2023/06/08 01:24:15;;;;;;;24.00;21.50;;;18.00;99.90;;;;;;2099060;28;20326;-73
2023/06/08 01:25:18;;;;;;;27.95;23.55;;;17.90;99.90;;;;;;2100164;28;20063;-73
2023/06/08 01:26:20;;;;;;;23.83;21.50;;;18.00;99.90;;;;;;2087353;28;20177;-73
2023/06/08 01:27:20;;;;;;;24.10;21.70;;;18.00;99.90;;;;;;2089411;28;20055;-73
2023/06/08 01:28:22;;;;;;;24.98;22.55;;;18.00;99.90;;;;;;2090525;28;20044;-73
2023/06/08 01:29:25;;;;;;;24.00;21.70;;;18.00;99.90;;;;;;2090810;28;20320;-73
2023/06/08 01:30:26;;;;;;;24.95;21.63;;;17.90;99.90;;;;;;2090781;28;20266;-73
2023/06/08 01:31:26;;;;;;;26.38;23.60;;;18.00;99.90;;;;;;2092128;28;20066;-73
2023/06/08 01:32:27;;;;;;;26.08;23.48;;;17.90;99.90;;;;;;2100976;28;20050;-73
2023/06/08 01:33:29;;;;;;;25.73;23.02;;;17.90;99.90;;;;;;2095187;28;20051;-73
2023/06/08 01:34:30;;;;;;;25.65;22.95;;;18.00;99.90;;;;;;2099730;28;20032;-73
2023/06/08 01:35:30;;;;;;;28.77;25.77;;;17.90;99.90;;;;;;2100789;28;20036;-73
2023/06/08 01:36:55;;;;;;;26.58;23.77;;;17.90;99.90;;;;;;2097816;28;20514;-74
2023/06/08 01:38:02;;;;;;;25.98;23.38;;;17.90;99.90;;;;;;2095617;28;20032;-74
2023/06/08 01:39:46;;;;;;;28.27;25.40;;;17.90;99.90;;;;;;2092840;28;20023;-73
2023/06/08 01:40:54;;;;;;;25.80;22.75;;;17.90;99.90;;;;;;2097956;28;20023;-73
2023/06/08 01:42:00;;;;;;;25.00;22.40;;;17.90;99.90;;;;;;2098124;28;20028;-74
2023/06/08 01:43:05;;;;;;;26.75;24.15;;;17.90;99.90;;;;;;2097321;28;20598;-73
2023/06/08 01:44:08;;;;;;;24.83;22.35;;;17.90;99.90;;;;;;2092914;28;20054;-73
2023/06/08 01:45:18;;;;;;;24.05;21.35;;;17.90;99.90;;;;;;2097361;28;20021;-73
2023/06/08 01:46:21;;;;;;;24.83;22.33;;;17.90;99.90;;;;;;2096842;28;20132;-73
2023/06/08 01:47:26;;;;;;;25.02;22.52;;;17.90;99.90;;;;;;2090822;28;20040;-71
2023/06/08 01:48:28;;;;;;;25.05;22.50;;;17.90;99.90;;;;;;2096724;28;20404;-74
2023/06/08 01:49:32;;;;;;;24.27;21.30;;;17.90;99.90;;;;;;2088482;28;20037;-72
2023/06/08 01:50:34;;;;;;;24.50;22.10;;;17.90;99.90;;;;;;2099903;28;20040;-74
2023/06/08 01:51:36;;;;;;;25.58;22.98;;;17.90;99.90;;;;;;2097047;28;20570;-74
2023/06/08 01:52:39;;;;;;;25.95;22.75;;;17.90;99.90;;;;;;2095061;28;20042;-74
2023/06/08 01:53:41;;;;;;;26.38;23.75;;;17.90;99.90;;;;;;2095407;28;20118;-74
2023/06/08 01:54:41;;;;;;;24.27;21.85;;;17.90;99.90;;;;;;2100470;28;20490;-74
2023/06/08 01:55:42;;;;;;;24.80;22.20;;;17.80;99.90;;;;;;2098222;28;20348;-74
2023/06/08 01:56:42;;;;;;;25.70;23.00;;;17.90;99.90;;;;;;2098097;28;20023;-74
2023/06/08 01:57:44;;;;;;;25.98;23.38;;;17.90;99.90;;;;;;2087483;28;20040;-74
2023/06/08 01:58:44;;;;;;;23.90;21.50;;;17.90;99.90;;;;;;2085268;28;20017;-74
2023/06/08 01:59:45;;;;;;;25.30;21.95;;;17.90;99.90;;;;;;2087007;28;20537;-74
2023/06/08 02:00:45;;;;;;;23.48;21.08;;;17.80;99.90;;;;;;2101393;28;20097;-74
2023/06/08 02:01:46;;;;;;;23.48;20.98;;;17.90;99.90;;;;;;2091690;28;20217;-74
2023/06/08 02:02:47;;;;;;;24.70;22.25;;;17.80;99.90;;;;;;2096919;28;20024;-74
2023/06/08 02:03:47;;;;;;;26.13;23.33;;;17.90;99.90;;;;;;2099063;28;20031;-74
2023/06/08 02:04:48;;;;;;;27.67;24.80;;;17.90;99.90;;;;;;2090491;28;20025;-74
2023/06/08 02:05:49;;;;;;;27.63;24.83;;;17.90;99.90;;;;;;2095193;28;20250;-74
2023/06/08 02:06:50;;;;;;;26.75;23.98;;;17.90;99.90;;;;;;2088799;28;20115;-73
2023/06/08 02:07:50;;;;;;;27.35;23.80;;;17.90;99.90;;;;;;2093540;28;20095;-73
2023/06/08 02:08:51;;;;;;;28.25;24.75;;;17.90;99.90;;;;;;2101083;28;20027;-73
2023/06/08 02:09:52;;;;;;;26.67;23.92;;;17.90;99.90;;;;;;2096766;28;20024;-73
2023/06/08 02:10:52;;;;;;;26.45;23.65;;;17.90;99.90;;;;;;2092820;28;20069;-73
2023/06/08 02:12:08;;;;;;;26.88;24.13;;;17.90;99.90;;;;;;2099677;28;20027;-73
2023/06/08 02:13:09;;;;;;;28.23;25.33;;;17.90;99.90;;;;;;2108355;27;20072;-74
2023/06/08 02:14:10;;;;;;;26.25;23.48;;;17.90;99.90;;;;;;2110099;27;20107;-73
2023/06/08 02:15:10;;;;;;;26.08;23.30;;;17.90;99.90;;;;;;2098953;28;20038;-74
2023/06/08 02:16:11;;;;;;;24.23;21.88;;;17.80;99.90;;;;;;2097172;28;20028;-73
2023/06/08 02:17:13;;;;;;;26.08;23.38;;;17.80;99.90;;;;;;2093065;28;20487;-74
2023/06/08 02:18:14;;;;;;;25.50;22.80;;;17.80;99.90;;;;;;2091214;28;20470;-73
2023/06/08 02:19:16;;;;;;;27.70;24.80;;;17.80;99.90;;;;;;2101553;28;20037;-73
2023/06/08 02:20:17;;;;;;;24.85;22.25;;;17.80;99.90;;;;;;2091368;28;20040;-73
2023/06/08 02:21:19;;;;;;;25.52;22.10;;;17.80;99.90;;;;;;2090480;28;20089;-74
2023/06/08 02:22:20;;;;;;;25.92;23.35;;;17.90;99.90;;;;;;2100110;28;20523;-74
2023/06/08 02:23:21;;;;;;;26.27;23.55;;;17.90;99.90;;;;;;2102384;28;20490;-73
2023/06/08 02:24:22;;;;;;;28.00;23.23;;;17.90;99.90;;;;;;2101063;28;20039;-73
2023/06/08 02:25:22;;;;;;;25.10;22.45;;;17.80;99.90;;;;;;2097843;28;20027;-74
2023/06/08 02:26:23;;;;;;;24.77;22.15;;;17.90;99.90;;;;;;2096491;28;20435;-74
2023/06/08 02:27:23;;;;;;;26.23;22.25;;;17.80;99.90;;;;;;2088318;28;20033;-74
2023/06/08 02:28:25;;;;;;;25.85;23.15;;;17.90;99.90;;;;;;2091894;28;20117;-74
2023/06/08 02:29:27;;;;;;;25.08;22.65;;;17.90;99.90;;;;;;2094229;28;20505;-74
2023/06/08 02:30:28;;;;;;;26.67;23.60;;;17.80;99.90;;;;;;2100319;28;20032;-74
2023/06/08 02:31:29;;;;;;;24.02;21.63;;;17.90;99.90;;;;;;2100770;28;20409;-73
2023/06/08 02:32:32;;;;;;;24.65;22.08;;;17.80;99.90;;;;;;2101570;28;20048;-73
2023/06/08 02:33:33;;;;;;;26.88;23.73;;;17.80;99.90;;;;;;2099660;28;20422;-73
2023/06/08 02:34:38;;;;;;;25.80;21.90;;;17.80;99.90;;;;;;2093182;28;20051;-73
2023/06/08 02:35:40;;;;;;;23.35;20.85;;;17.80;99.90;;;;;;2094157;28;20029;-74
2023/06/08 02:36:41;;;;;;;22.88;20.50;;;17.80;99.90;;;;;;2093289;28;20115;-73
2023/06/08 02:37:43;;;;;;;23.55;21.15;;;17.80;99.90;;;;;;2089341;28;20159;-73
2023/06/08 02:38:45;;;;;;;24.08;21.58;;;17.80;99.90;;;;;;2088037;28;20085;-73
2023/06/08 02:39:46;;;;;;;23.98;21.48;;;17.80;99.90;;;;;;2092035;28;20371;-73
2023/06/08 02:40:48;;;;;;;25.02;22.35;;;17.80;99.90;;;;;;2099573;28;20420;-73
2023/06/08 02:41:50;;;;;;;23.67;21.27;;;17.80;99.90;;;;;;2092291;28;20446;-74
2023/06/08 02:42:51;;;;;;;23.23;20.90;;;17.80;99.90;;;;;;2099619;28;20081;-74
2023/06/08 02:43:54;;;;;;;24.27;21.75;;;17.80;99.90;;;;;;2088331;28;20060;-74
2023/06/08 02:44:55;;;;;;;26.27;21.52;;;17.80;99.90;;;;;;2093228;28;20032;-74
2023/06/08 02:45:56;;;;;;;24.45;21.90;;;17.80;99.90;;;;;;2093335;28;20580;-72
2023/06/08 02:46:59;;;;;;;24.55;21.65;;;17.80;99.90;;;;;;2089792;28;20021;-72
2023/06/08 02:48:01;;;;;;;24.35;21.98;;;17.80;99.90;;;;;;2088860;28;20037;-72
2023/06/08 02:49:01;;;;;;;24.08;21.58;;;17.80;99.90;;;;;;2092493;28;20025;-72
2023/06/08 02:50:02;;;;;;;26.30;21.88;;;17.80;99.90;;;;;;2089232;28;20029;-72
2023/06/08 02:51:05;;;;;;;24.83;22.42;;;17.80;99.90;;;;;;2096563;28;20442;-73
2023/06/08 02:52:06;;;;;;;23.83;21.35;;;17.80;99.90;;;;;;2094736;28;20325;-73
2023/06/08 02:53:07;;;;;;;25.30;22.65;;;17.80;99.90;;;;;;2104462;28;20113;-73
2023/06/08 02:54:08;;;;;;;24.60;21.85;;;17.80;99.90;;;;;;2096792;28;20034;-73
2023/06/08 02:55:08;;;;;;;24.92;22.27;;;17.80;99.90;;;;;;2097462;28;20039;-73
2023/06/08 02:56:09;;;;;;;24.02;21.52;;;17.80;99.90;;;;;;2097789;28;20032;-73
2023/06/08 02:57:10;;;;;;;23.00;20.60;;;17.80;99.90;;;;;;2097242;28;20059;-73
2023/06/08 02:58:18;;;;;;;23.00;20.67;;;17.80;99.90;;;;;;2096898;28;20502;-73
2023/06/08 02:59:19;;;;;;;23.85;21.40;;;17.80;99.90;;;;;;2097583;28;20032;-73
2023/06/08 03:00:20;;;;;;;22.20;19.98;;;17.80;99.90;;;;;;2091461;28;20051;-73
2023/06/08 03:01:36;;;;;;;24.83;22.23;;;17.80;99.90;;;;;;2087125;28;20692;-73
2023/06/08 03:02:42;;;;;;;23.83;21.52;;;17.80;99.90;;;;;;2088621;28;20498;-73
2023/06/08 03:03:45;;;;;;;25.10;22.60;;;17.80;99.90;;;;;;2094747;28;20185;-73
2023/06/08 03:04:52;;;;;;;25.92;23.33;;;17.80;99.90;;;;;;2089894;28;20396;-73
2023/06/08 03:05:59;;;;;;;24.98;22.52;;;17.80;99.90;;;;;;2081886;28;20029;-73
2023/06/08 03:07:03;;;;;;;25.65;21.88;;;17.80;99.90;;;;;;2087472;28;20557;-73
2023/06/08 03:08:07;;;;;;;24.75;21.70;;;17.80;99.90;;;;;;2091654;28;20024;-72
2023/06/08 03:09:07;;;;;;;25.08;22.48;;;17.80;99.90;;;;;;2099895;28;20348;-73
2023/06/08 03:10:10;;;;;;;23.33;21.08;;;17.80;99.90;;;;;;2100878;28;20028;-73
2023/06/08 03:11:11;;;;;;;24.38;21.77;;;17.80;99.90;;;;;;2097420;28;20112;-74
2023/06/08 03:12:13;;;;;;;24.90;22.20;;;17.80;99.90;;;;;;2093411;28;20162;-73
2023/06/08 03:13:16;;;;;;;24.85;22.15;;;17.80;99.90;;;;;;2088385;28;20029;-73
2023/06/08 03:14:18;;;;;;;24.45;21.90;;;17.80;99.90;;;;;;2096374;28;20131;-73
2023/06/08 03:15:22;;;;;;;24.75;22.15;;;17.80;99.90;;;;;;2089093;28;20033;-73
2023/06/08 03:16:23;;;;;;;24.17;21.77;;;17.70;99.90;;;;;;2104514;28;20024;-74
2023/06/08 03:17:24;;;;;;;24.60;21.58;;;17.70;99.90;;;;;;2100067;28;20028;-73
2023/06/08 03:18:25;;;;;;;23.63;21.15;;;17.80;99.90;;;;;;2092363;28;20090;-73
2023/06/08 03:19:30;;;;;;;24.73;22.20;;;17.70;99.90;;;;;;2099615;28;20063;-73
2023/06/08 03:20:30;;;;;;;25.45;22.75;;;17.80;99.90;;;;;;2100828;28;20035;-74
2023/06/08 03:21:38;;;;;;;26.60;22.85;;;17.70;99.90;;;;;;2099256;28;20058;-74
2023/06/08 03:22:41;;;;;;;25.67;23.13;;;17.80;99.90;;;;;;2089433;28;20067;-73
2023/06/08 03:23:42;;;;;;;27.60;23.45;;;17.70;99.90;;;;;;2096952;28;20029;-74
2023/06/08 03:24:48;;;;;;;26.20;23.50;;;17.70;99.90;;;;;;2097395;28;20540;-74
2023/06/08 03:25:50;;;;;;;26.15;23.45;;;17.70;99.90;;;;;;2094470;28;20644;-75
2023/06/08 03:26:51;;;;;;;27.13;24.27;;;17.70;99.90;;;;;;2093383;28;20052;-73
2023/06/08 03:27:52;;;;;;;26.25;23.55;;;17.70;99.90;;;;;;2080012;28;20083;-73
2023/06/08 03:28:53;;;;;;;26.90;24.05;;;17.70;99.90;;;;;;2087511;28;20055;-74
2023/06/08 03:29:53;;;;;;;26.77;24.00;;;17.70;99.90;;;;;;2090555;28;20111;-73
2023/06/08 03:30:58;;;;;;;28.20;25.20;;;17.70;99.90;;;;;;2100857;28;20021;-73
2023/06/08 03:32:04;;;;;;;26.73;24.13;;;17.70;99.90;;;;;;2099553;28;20024;-73
2023/06/08 03:33:06;;;;;;;27.25;24.38;;;17.70;99.90;;;;;;2090831;28;20531;-73
2023/06/08 03:34:25;;;;;;;27.92;25.13;;;17.70;99.90;;;;;;2090280;28;20044;-72
2023/06/08 03:35:29;;;;;;;30.55;27.25;;;17.70;99.90;;;;;;2093349;28;20129;-73
2023/06/08 03:36:48;;;;;;;30.25;26.98;;;17.70;99.90;;;;;;2096920;28;20023;-73
2023/06/08 03:37:55;;;;;;;28.45;25.42;;;17.70;99.90;;;;;;2083198;28;20107;-73
2023/06/08 03:38:56;;;;;;;30.85;26.42;;;17.70;99.90;;;;;;2099597;28;20129;-73
2023/06/08 03:39:57;;;;;;;29.02;25.92;;;17.70;99.90;;;;;;2101091;28;20020;-73
2023/06/08 03:40:58;;;;;;;29.45;25.70;;;17.70;99.90;;;;;;2101586;28;20016;-73
2023/06/08 03:41:59;;;;;;;27.15;24.35;;;17.70;99.90;;;;;;2096754;28;20027;-73
2023/06/08 03:43:03;;;;;;;28.83;24.77;;;17.70;99.90;;;;;;2102901;28;20035;-73
2023/06/08 03:44:04;;;;;;;26.27;23.48;;;17.70;99.90;;;;;;2087896;28;20661;-73
2023/06/08 03:45:06;;;;;;;28.52;25.63;;;17.70;99.90;;;;;;2091883;28;20020;-72
2023/06/08 03:46:06;;;;;;;28.17;24.92;;;17.70;99.90;;;;;;2096825;28;20386;-73
2023/06/08 03:47:09;;;;;;;28.70;25.63;;;17.70;99.90;;;;;;2092809;28;20061;-73
2023/06/08 03:48:11;;;;;;;28.95;24.92;;;17.80;99.90;;;;;;2092584;28;20435;-73
2023/06/08 03:49:13;;;;;;;27.33;24.08;;;17.70;99.90;;;;;;2101881;28;20039;-73
2023/06/08 03:50:14;;;;;;;26.85;24.05;;;17.80;99.90;;;;;;2095676;28;20110;-73
2023/06/08 03:51:15;;;;;;;27.13;24.30;;;17.70;99.90;;;;;;2101598;28;20028;-73
2023/06/08 03:52:16;;;;;;;29.33;26.33;;;17.80;99.90;;;;;;2105102;28;20434;-73
2023/06/08 03:53:16;;;;;;;28.30;25.25;;;17.80;99.90;;;;;;2098241;28;20106;-74
2023/06/08 03:54:17;;;;;;;29.88;25.73;;;17.80;99.90;;;;;;2099106;28;20114;-72
2023/06/08 03:55:18;;;;;;;29.30;24.38;;;17.80;99.90;;;;;;2098026;28;20035;-73
2023/06/08 03:56:20;;;;;;;28.20;25.05;;;17.80;99.90;;;;;;2093718;28;20175;-72
2023/06/08 03:57:20;;;;;;;28.85;25.40;;;17.80;99.90;;;;;;2097592;28;20059;-73
2023/06/08 03:58:23;;;;;;;28.73;25.73;;;17.90;99.90;;;;;;2100792;28;20024;-73
2023/06/08 03:59:23;;;;;;;28.02;25.13;;;17.90;99.90;;;;;;2094443;28;20024;-74
2023/06/08 04:00:24;;;;;;;30.38;26.58;;;17.90;99.90;;;;;;2095823;28;20028;-73
2023/06/08 04:01:30;;;;;;;31.08;27.50;;;17.90;99.90;;;;;;2095244;28;20275;-73
2023/06/08 04:02:30;;;;;;;28.08;25.13;;;17.90;99.90;;;;;;2097295;28;20032;-73
2023/06/08 04:03:32;;;;;;;26.38;23.40;;;17.90;99.90;;;;;;2094724;28;20035;-73
2023/06/08 04:04:34;;;;;;;28.20;25.23;;;17.90;99.90;;;;;;2094290;28;20048;-73
2023/06/08 04:05:36;;;;;;;25.65;22.98;;;17.90;99.90;;;;;;2089858;28;20047;-74
2023/06/08 04:06:38;;;;;;;29.02;25.83;;;17.90;99.90;;;;;;2096934;28;20436;-74
2023/06/08 04:07:40;;;;;;;30.63;26.17;;;17.90;99.90;;;;;;2095901;28;20032;-74
2023/06/08 04:08:41;;;;;;;30.05;25.15;;;17.90;99.90;;;;;;2091685;28;20487;-75
2023/06/08 04:09:42;;;;;;;29.20;26.13;;;17.90;99.90;;;;;;2079911;28;20457;-79
2023/06/08 04:10:44;;;;;;;27.75;24.55;;;17.90;99.90;;;;;;2091613;28;20040;-79
2023/06/08 04:11:44;;;;;;;28.55;25.42;;;17.90;99.90;;;;;;2096519;28;20012;-79
2023/06/08 04:12:47;;;;;;;28.60;25.23;;;17.90;99.90;;;;;;2096014;28;20103;-77
2023/06/08 04:13:48;;;;;;;26.88;24.13;;;17.90;99.90;;;;;;2093454;28;20024;-80
2023/06/08 04:14:50;;;;;;;28.15;25.02;;;17.90;99.90;;;;;;2091422;28;20041;-78
2023/06/08 04:15:51;;;;;;;31.83;25.92;;;17.90;99.90;;;;;;2091727;28;20035;-77
2023/06/08 04:16:52;;;;;;;27.48;24.48;;;17.90;99.90;;;;;;2091180;28;20047;-77
2023/06/08 04:17:53;;;;;;;28.52;25.52;;;17.90;99.90;;;;;;2089313;28;20500;-78
2023/06/08 04:18:56;;;;;;;29.15;26.05;;;17.90;99.90;;;;;;2091390;28;20028;-78
2023/06/08 04:20:01;;;;;;;28.08;24.13;;;17.90;99.90;;;;;;2092697;28;20115;-78
2023/06/08 04:21:02;;;;;;;28.35;24.33;;;17.90;99.90;;;;;;2089182;28;20028;-78
2023/06/08 04:22:04;;;;;;;29.33;24.77;;;17.90;99.90;;;;;;2093026;28;20025;-79
2023/06/08 04:23:05;;;;;;;28.38;25.40;;;17.90;99.90;;;;;;2093890;28;20544;-79
2023/06/08 04:24:07;;;;;;;30.00;26.02;;;17.90;99.90;;;;;;2091706;28;20086;-79
2023/06/08 04:25:10;;;;;;;29.25;26.25;;;17.90;99.90;;;;;;2092132;28;20028;-77
2023/06/08 04:26:12;;;;;;;29.67;25.00;;;17.90;99.90;;;;;;2098461;28;20527;-78
2023/06/08 04:27:16;;;;;;;28.63;24.85;;;17.90;99.90;;;;;;2090581;28;20032;-75
2023/06/08 04:28:16;;;;;;;28.67;24.70;;;17.90;99.90;;;;;;2093105;28;20052;-78
2023/06/08 04:29:18;;;;;;;27.10;23.42;;;17.90;99.90;;;;;;2079569;28;20492;-77
2023/06/08 04:30:19;;;;;;;27.63;24.75;;;17.90;99.90;;;;;;2094768;28;20028;-78
2023/06/08 04:31:20;;;;;;;28.40;25.33;;;18.00;99.90;;;;;;2086933;28;20041;-78
2023/06/08 04:32:22;;;;;;;34.22;26.85;;;18.00;99.90;;;;;;2094460;28;20058;-76
2023/06/08 04:33:22;;;;;;;32.97;25.67;;;18.00;99.90;;;;;;2100691;28;20134;-75
2023/06/08 04:34:23;;;;;;;29.25;26.05;;;18.00;99.90;;;;;;2100054;28;20529;-76
2023/06/08 04:35:24;;;;;;;29.05;25.77;;;18.00;99.90;;;;;;2095769;28;20042;-76
2023/06/08 04:36:25;;;;;;;29.45;25.23;;;18.00;99.90;;;;;;2094518;28;20043;-77
2023/06/08 04:37:27;;;;;;;29.77;25.77;;;18.00;99.90;;;;;;2094518;28;20043;-74
2023/06/08 04:38:28;;;;;;;29.20;25.75;;;18.00;99.90;;;;;;2093131;28;20025;-76
2023/06/08 04:39:30;;;;;;;32.42;28.17;;;18.00;99.90;;;;;;2091145;28;20074;-78
2023/06/08 04:40:33;;;;;;;30.23;26.95;;;18.00;99.90;;;;;;2094446;28;20624;-77
2023/06/08 04:41:34;;;;;;;32.28;27.50;;;18.00;99.90;;;;;;2084724;28;20028;-77
2023/06/08 04:42:39;;;;;;;32.55;27.70;;;18.00;99.90;;;;;;2091159;28;20037;-78
2023/06/08 04:43:44;;;;;;;28.00;24.92;;;18.00;99.90;;;;;;2090857;28;20024;-76
2023/06/08 04:44:46;;;;;;;27.13;24.42;;;18.00;99.90;;;;;;2089170;28;20029;-77
2023/06/08 04:45:59;;;;;;;27.40;23.98;;;18.00;99.90;;;;;;2096750;28;20028;-76
2023/06/08 04:47:02;;;;;;;27.73;24.90;;;18.00;99.90;;;;;;2096945;28;20019;-77
2023/06/08 04:48:04;;;;;;;27.63;24.80;;;18.00;99.90;;;;;;2081099;28;20028;-76
2023/06/08 04:49:04;;;;;;;29.20;25.98;;;18.00;99.90;;;;;;2088073;28;20020;-76
2023/06/08 04:50:07;;;;;;;31.13;25.02;;;18.00;99.90;;;;;;2097257;28;20077;-76
2023/06/08 04:51:09;;;;;;;30.40;25.92;;;18.00;99.90;;;;;;2090043;28;20016;-75
2023/06/08 04:52:13;;;;;;;29.85;26.00;;;18.00;99.90;;;;;;2094952;28;20028;-76
2023/06/08 04:53:14;;;;;;;33.05;25.80;;;18.00;99.90;;;;;;2091681;28;20017;-75
2023/06/08 04:54:17;;;;;;;29.67;26.48;;;18.00;99.90;;;;;;2096930;28;20036;-76
2023/06/08 04:55:19;;;;;;;30.50;27.10;;;18.00;99.90;;;;;;2088407;28;20874;-76
2023/06/08 04:56:20;;;;;;;30.88;27.58;;;17.90;99.90;;;;;;2096002;28;20097;-75
2023/06/08 04:57:22;;;;;;;33.05;28.80;;;17.90;99.90;;;;;;2098807;28;20039;-75
2023/06/08 04:58:27;;;;;;;30.33;27.00;;;17.90;99.90;;;;;;2105301;28;20070;-75
2023/06/08 04:59:28;;;;;;;31.33;26.60;;;17.90;99.90;;;;;;2100334;28;20028;-74
2023/06/08 05:00:28;;;;;;;31.05;26.75;;;17.90;99.90;;;;;;2087463;28;20123;-74
2023/06/08 05:01:29;;;;;;;30.50;27.20;;;17.90;99.90;;;;;;2095942;28;20027;-74
2023/06/08 05:02:30;;;;;;;32.97;29.38;;;17.90;99.90;;;;;;2097411;28;20028;-74
2023/06/08 05:03:30;;;;;;;35.35;31.50;;;17.90;99.90;;;;;;2100333;28;20035;-73
2023/06/08 05:04:31;;;;;;;36.17;32.30;;;17.90;99.90;;;;;;2099629;28;20028;-75
2023/06/08 05:05:31;;;;;;;32.92;29.35;;;17.90;99.90;;;;;;2095431;28;20054;-75
2023/06/08 05:06:33;;;;;;;32.80;28.60;;;17.90;99.90;;;;;;2100415;28;20099;-75
2023/06/08 05:07:35;;;;;;;35.88;28.67;;;17.90;99.90;;;;;;2089006;28;20028;-74
2023/06/08 05:08:36;;;;;;;31.13;27.77;;;17.90;99.90;;;;;;2089085;28;20051;-75
2023/06/08 05:09:36;;;;;;;31.33;27.38;;;17.90;99.90;;;;;;2095763;28;20039;-74
2023/06/08 05:10:37;;;;;;;29.27;26.17;;;17.80;99.90;;;;;;2098558;28;20040;-74
2023/06/08 05:11:38;;;;;;;29.98;27.00;;;17.80;99.90;;;;;;2100950;28;20085;-75
2023/06/08 05:12:38;;;;;;;30.05;26.88;;;17.80;99.90;;;;;;2097801;28;20063;-74
2023/06/08 05:13:39;;;;;;;30.60;27.33;;;17.80;99.90;;;;;;2096197;28;20368;-75
2023/06/08 05:14:39;;;;;;;31.08;27.80;;;17.80;99.90;;;;;;2102589;28;20660;-76
2023/06/08 05:15:40;;;;;;;30.58;27.38;;;17.80;99.90;;;;;;2096306;28;20047;-76
2023/06/08 05:16:40;;;;;;;31.80;28.60;;;17.80;99.90;;;;;;2101918;28;20418;-76
2023/06/08 05:17:41;;;;;;;36.65;32.92;;;17.70;99.90;;;;;;2098581;28;20023;-74
2023/06/08 05:18:41;;;;;;;38.20;33.83;;;17.80;99.90;;;;;;2100532;28;20616;-72
2023/06/08 05:19:42;;;;;;;35.83;31.88;;;17.80;99.90;;;;;;2095110;28;20445;-75